createdAt,value
2018-12-21T00:02:04.013Z,3.65
2018-12-21T00:04:36.876Z,3.67
2018-12-21T00:07:09.783Z,3.69
2018-12-21T00:09:42.636Z,3.65
2018-12-21T00:12:15.522Z,3.67
2018-12-21T00:14:48.398Z,3.69
2018-12-21T00:17:21.284Z,3.69
2018-12-21T00:19:54.166Z,3.69
2018-12-21T00:22:27.062Z,3.71
2018-12-21T00:24:59.926Z,3.75
2018-12-21T00:27:32.824Z,3.75
2018-12-21T00:30:09.086Z,3.78
2018-12-21T00:32:47.723Z,3.79
2018-12-21T00:35:26.196Z,3.80
2018-12-21T00:38:05.711Z,3.79
2018-12-21T00:40:44.386Z,3.76
2018-12-21T00:43:24.614Z,3.73
2018-12-21T00:45:59.464Z,3.71
2018-12-21T00:48:32.348Z,3.70
2018-12-21T00:51:05.318Z,3.72
2018-12-21T00:53:38.213Z,3.73
2018-12-21T00:56:11.142Z,3.73
2018-12-21T00:58:44.046Z,3.74
2018-12-21T01:01:16.906Z,3.78
2018-12-21T01:03:49.880Z,3.82
2018-12-21T01:06:23.120Z,3.84
2018-12-21T01:08:56.107Z,3.84
2018-12-21T01:11:29.012Z,3.86
2018-12-21T01:14:04.629Z,3.83
2018-12-21T01:16:37.529Z,3.83
2018-12-21T01:19:10.481Z,3.82
2018-12-21T01:21:43.376Z,3.80
2018-12-21T01:24:16.257Z,3.79
2018-12-21T01:26:49.117Z,3.78
2018-12-21T01:29:21.979Z,3.76
2018-12-21T01:31:54.929Z,3.71
2018-12-21T01:34:27.885Z,3.72
2018-12-21T01:37:00.733Z,3.75
2018-12-21T01:39:33.618Z,3.76
2018-12-21T01:42:06.455Z,3.79
2018-12-21T01:44:39.337Z,3.80
2018-12-21T01:47:12.176Z,3.79
2018-12-21T01:49:45.232Z,3.78
2018-12-21T01:52:18.089Z,3.75
2018-12-21T01:54:50.983Z,3.75
2018-12-21T01:57:23.879Z,3.74
2018-12-21T01:59:56.817Z,3.71
2018-12-21T02:02:29.675Z,3.70
2018-12-21T02:05:02.566Z,3.73
2018-12-21T02:07:35.410Z,3.76
2018-12-21T02:10:08.437Z,3.79
2018-12-21T02:12:41.301Z,3.76
2018-12-21T02:15:14.208Z,3.78
2018-12-21T02:17:47.047Z,3.78
2018-12-21T02:20:19.999Z,3.77
2018-12-21T02:22:52.859Z,3.79
2018-12-21T02:25:27.840Z,3.83
2018-12-21T02:28:00.710Z,3.88
2018-12-21T02:30:33.581Z,3.90
2018-12-21T02:33:02.733Z,3.90
2018-12-21T02:35:35.639Z,3.87
2018-12-21T02:38:08.532Z,3.84
2018-12-21T02:40:41.424Z,3.83
2018-12-21T02:43:14.299Z,3.82
2018-12-21T02:45:47.218Z,3.84
2018-12-21T02:48:20.069Z,3.88
2018-12-21T02:50:52.957Z,3.94
2018-12-21T02:53:25.811Z,3.99
2018-12-21T02:55:58.753Z,4.03
2018-12-21T02:58:31.688Z,4.09
2018-12-21T03:01:04.559Z,4.11
2018-12-21T03:03:39.122Z,4.08
2018-12-21T03:06:12.000Z,4.07
2018-12-21T03:08:44.973Z,4.08
2018-12-21T03:11:18.006Z,4.08
2018-12-21T03:13:50.952Z,4.11
2018-12-21T03:16:23.856Z,4.10
2018-12-21T03:18:56.719Z,4.12
2018-12-21T03:21:29.618Z,4.17
2018-12-21T03:24:02.472Z,4.19
2018-12-21T03:26:35.357Z,4.22
2018-12-21T03:29:08.235Z,4.31
2018-12-21T03:31:41.125Z,4.39
2018-12-21T03:34:14.005Z,4.43
2018-12-21T03:36:46.876Z,4.48
2018-12-21T03:39:19.761Z,4.51
2018-12-21T03:41:52.649Z,4.52
2018-12-21T03:44:25.582Z,4.53
2018-12-21T03:46:58.588Z,4.56
2018-12-21T03:49:31.444Z,4.57
2018-12-21T03:52:04.390Z,4.58
2018-12-21T03:54:37.243Z,4.60
2018-12-21T03:57:10.145Z,4.59
2018-12-21T03:59:42.973Z,4.56
2018-12-21T04:02:15.867Z,4.55
2018-12-21T04:04:48.776Z,4.55
2018-12-21T04:07:21.678Z,4.55
2018-12-21T04:09:54.585Z,4.55
2018-12-21T04:12:27.438Z,4.54
2018-12-21T04:15:00.387Z,4.51
2018-12-21T04:17:33.259Z,4.51
2018-12-21T04:20:06.204Z,4.53
2018-12-21T04:22:39.107Z,4.51
2018-12-21T04:25:11.936Z,4.50
2018-12-21T04:27:44.809Z,4.49
2018-12-21T04:30:17.678Z,4.47
2018-12-21T04:32:50.581Z,4.48
2018-12-21T04:35:23.439Z,4.46
2018-12-21T04:37:56.357Z,4.46
2018-12-21T04:40:29.263Z,4.50
2018-12-21T04:43:02.118Z,4.49
2018-12-21T04:45:34.994Z,4.51
2018-12-21T04:48:07.888Z,4.51
2018-12-21T04:50:40.715Z,4.53
2018-12-21T04:53:14.113Z,4.55
2018-12-21T04:55:47.011Z,4.54
2018-12-21T04:58:19.876Z,4.56
2018-12-21T05:00:52.737Z,4.57
2018-12-21T05:03:25.677Z,4.63
2018-12-21T05:05:58.529Z,4.66
2018-12-21T05:08:31.412Z,4.67
2018-12-21T05:11:04.301Z,4.66
2018-12-21T05:13:37.192Z,4.68
2018-12-21T05:16:10.049Z,4.70
2018-12-21T05:18:42.948Z,4.70
2018-12-21T05:21:15.800Z,4.74
2018-12-21T05:23:48.705Z,4.79
2018-12-21T05:26:21.580Z,4.82
2018-12-21T05:28:54.510Z,4.83
2018-12-21T05:31:28.457Z,4.88
2018-12-21T05:34:01.683Z,4.91
2018-12-21T05:36:34.545Z,4.89
2018-12-21T05:39:08.957Z,4.89
2018-12-21T05:41:41.945Z,4.89
2018-12-21T05:44:16.456Z,4.85
2018-12-21T05:46:50.079Z,4.83
2018-12-21T05:49:23.005Z,4.80
2018-12-21T05:51:55.863Z,4.79
2018-12-21T05:54:28.800Z,4.78
2018-12-21T05:57:01.684Z,4.76
2018-12-21T05:59:34.768Z,4.74
2018-12-21T06:02:07.678Z,4.75
2018-12-21T06:04:40.563Z,4.74
2018-12-21T06:07:13.450Z,4.74
2018-12-21T06:09:46.345Z,4.74
2018-12-21T06:12:19.257Z,4.73
2018-12-21T06:14:52.123Z,4.78
2018-12-21T06:17:25.008Z,4.79
2018-12-21T06:19:57.889Z,4.82
2018-12-21T06:22:30.752Z,4.83
2018-12-21T06:25:03.897Z,4.86
2018-12-21T06:27:36.765Z,4.86
2018-12-21T06:30:09.732Z,4.89
2018-12-21T06:32:42.619Z,4.90
2018-12-21T06:35:15.481Z,4.90
2018-12-21T06:37:48.620Z,4.92
2018-12-21T06:40:21.660Z,4.95
2018-12-21T06:42:54.551Z,4.96
2018-12-21T06:45:27.560Z,4.99
2018-12-21T06:48:00.442Z,4.99
2018-12-21T06:50:33.322Z,5.05
2018-12-21T06:53:06.158Z,5.05
2018-12-21T06:55:39.124Z,5.06
2018-12-21T06:58:11.979Z,5.08
2018-12-21T07:00:44.841Z,5.13
2018-12-21T07:03:17.692Z,5.14
2018-12-21T07:05:50.601Z,5.20
2018-12-21T07:08:23.499Z,5.18
2018-12-21T07:10:56.419Z,5.18
2018-12-21T07:13:29.274Z,5.21
2018-12-21T07:16:02.169Z,5.18
2018-12-21T07:18:35.000Z,5.15
2018-12-21T07:21:07.906Z,5.17
2018-12-21T07:23:41.686Z,5.17
2018-12-21T07:26:14.567Z,5.20
2018-12-21T07:28:47.407Z,5.21
2018-12-21T07:31:20.291Z,5.19
2018-12-21T07:33:53.133Z,5.21
2018-12-21T07:36:26.142Z,5.25
2018-12-21T07:38:58.977Z,5.27
2018-12-21T07:41:31.841Z,5.30
2018-12-21T07:44:04.722Z,5.34
2018-12-21T07:46:37.574Z,5.37
2018-12-21T07:49:10.460Z,5.42
2018-12-21T07:51:43.361Z,5.48
2018-12-21T07:54:16.191Z,5.59
2018-12-21T07:56:49.069Z,5.67
2018-12-21T07:59:21.909Z,5.74
2018-12-21T08:01:54.813Z,5.76
2018-12-21T08:04:27.665Z,5.79
2018-12-21T08:07:00.612Z,5.81
2018-12-21T08:09:33.444Z,5.82
2018-12-21T08:12:06.348Z,5.84
2018-12-21T08:14:35.435Z,5.85
2018-12-21T08:17:08.377Z,5.88
2018-12-21T08:19:41.245Z,5.90
2018-12-21T08:22:14.176Z,5.94
2018-12-21T08:24:47.409Z,5.98
2018-12-21T08:27:20.371Z,5.95
2018-12-21T08:29:53.202Z,5.94
2018-12-21T08:32:26.114Z,5.96
2018-12-21T08:34:58.992Z,5.93
2018-12-21T08:37:31.884Z,5.84
2018-12-21T08:40:06.986Z,5.74
2018-12-21T08:42:39.889Z,5.65
2018-12-21T08:45:12.809Z,5.61
2018-12-21T08:47:45.740Z,5.52
2018-12-21T08:50:18.603Z,5.45
2018-12-21T08:52:51.520Z,5.39
2018-12-21T08:55:24.405Z,5.40
2018-12-21T08:57:57.363Z,5.37
2018-12-21T09:00:30.260Z,5.38
2018-12-21T09:03:03.232Z,5.36
2018-12-21T09:05:36.190Z,5.37
2018-12-21T09:08:09.125Z,5.37
2018-12-21T09:10:42.000Z,5.39
2018-12-21T09:13:14.884Z,5.41
2018-12-21T09:15:47.792Z,5.43
2018-12-21T09:18:20.783Z,5.49
2018-12-21T09:20:53.656Z,5.54
2018-12-21T09:23:26.546Z,5.59
2018-12-21T09:25:59.408Z,5.68
2018-12-21T09:28:32.356Z,5.74
2018-12-21T09:31:05.223Z,5.80
2018-12-21T09:33:38.138Z,5.92
2018-12-21T09:36:10.997Z,5.98
2018-12-21T09:38:43.917Z,5.99
2018-12-21T09:41:16.778Z,6.05
2018-12-21T09:43:49.722Z,6.08
2018-12-21T09:46:22.637Z,6.05
2018-12-21T09:48:55.531Z,6.10
2018-12-21T09:51:28.417Z,6.10
2018-12-21T09:54:09.631Z,6.10
2018-12-21T09:56:36.177Z,6.12
2018-12-21T09:59:09.068Z,6.07
2018-12-21T10:01:41.945Z,6.13
2018-12-21T10:04:18.037Z,6.16
2018-12-21T10:06:50.923Z,6.18
2018-12-21T10:09:23.833Z,6.15
2018-12-21T10:11:56.747Z,6.18
2018-12-21T10:14:29.664Z,6.18
2018-12-21T10:17:02.581Z,6.13
2018-12-21T10:19:35.521Z,6.18
2018-12-21T10:22:08.383Z,6.19
2018-12-21T10:24:41.249Z,6.17
2018-12-21T10:27:14.097Z,6.12
2018-12-21T10:29:47.005Z,6.10
2018-12-21T10:32:19.880Z,6.09
2018-12-21T10:34:52.784Z,6.06
2018-12-21T10:37:25.667Z,5.98
2018-12-21T10:39:55.599Z,5.96
2018-12-21T10:42:28.442Z,5.96
2018-12-21T10:45:01.366Z,5.93
2018-12-21T10:47:34.284Z,5.96
2018-12-21T10:50:09.215Z,6.01
2018-12-21T10:52:42.239Z,5.96
2018-12-21T10:55:15.216Z,5.95
2018-12-21T10:57:48.113Z,5.98
2018-12-21T11:00:21.056Z,5.99
2018-12-21T11:02:53.910Z,6.01
2018-12-21T11:05:26.898Z,6.01
2018-12-21T11:07:59.746Z,6.00
2018-12-21T11:10:32.694Z,6.02
2018-12-21T11:13:05.608Z,6.05
2018-12-21T11:15:38.500Z,6.04
2018-12-21T11:18:11.421Z,6.05
2018-12-21T11:20:44.282Z,6.07
2018-12-21T11:23:17.187Z,6.04
2018-12-21T11:25:50.078Z,6.04
2018-12-21T11:28:25.499Z,6.11
2018-12-21T11:30:57.898Z,6.13
2018-12-21T11:33:30.760Z,6.16
2018-12-21T11:36:03.744Z,6.17
2018-12-21T11:38:36.616Z,6.20
2018-12-21T11:41:09.518Z,6.24
2018-12-21T11:43:42.452Z,6.25
2018-12-21T11:46:15.326Z,6.28
2018-12-21T11:48:48.243Z,6.26
2018-12-21T11:51:21.267Z,6.29
2018-12-21T11:53:54.200Z,6.33
2018-12-21T11:56:27.127Z,6.38
2018-12-21T11:59:00.056Z,6.41
2018-12-21T12:01:33.053Z,6.42
2018-12-21T12:04:05.964Z,6.48
2018-12-21T12:06:39.009Z,6.57
2018-12-21T12:09:11.893Z,6.61
2018-12-21T12:11:44.891Z,6.62
2018-12-21T12:14:17.744Z,6.71
2018-12-21T12:16:50.656Z,6.78
2018-12-21T12:19:23.502Z,6.87
2018-12-21T12:21:56.397Z,6.87
2018-12-21T12:24:29.484Z,6.91
2018-12-21T12:27:02.357Z,6.99
2018-12-21T12:29:35.254Z,7.02
2018-12-21T12:32:08.100Z,7.01
2018-12-21T12:34:40.985Z,7.01
2018-12-21T12:37:14.280Z,6.98
2018-12-21T12:39:47.611Z,7.00
2018-12-21T12:42:20.494Z,6.97
2018-12-21T12:44:53.387Z,6.94
2018-12-21T12:47:26.633Z,6.91
2018-12-21T12:49:59.548Z,6.92
2018-12-21T12:52:32.998Z,6.92
2018-12-21T12:55:06.476Z,6.90
2018-12-21T12:57:39.392Z,6.97
2018-12-21T13:00:12.371Z,6.99
2018-12-21T13:02:45.358Z,7.02
2018-12-21T13:05:18.329Z,7.08
2018-12-21T13:07:51.305Z,7.18
2018-12-21T13:10:24.490Z,7.16
2018-12-21T13:12:58.671Z,7.16
2018-12-21T13:15:31.727Z,7.17
2018-12-21T13:18:04.705Z,7.17
2018-12-21T13:20:37.630Z,7.25
2018-12-21T13:23:10.557Z,7.27
2018-12-21T13:25:43.517Z,7.28
2018-12-21T13:28:16.455Z,7.34
2018-12-21T13:30:49.361Z,7.33
2018-12-21T13:33:22.306Z,7.34
2018-12-21T13:35:55.191Z,7.32
2018-12-21T13:38:28.874Z,7.39
2018-12-21T13:41:01.755Z,7.44
2018-12-21T13:43:34.906Z,7.45
2018-12-21T13:46:07.991Z,7.44
2018-12-21T13:48:41.063Z,7.43
2018-12-21T13:51:14.014Z,7.42
2018-12-21T13:53:47.022Z,7.40
2018-12-21T13:56:19.935Z,7.41
2018-12-21T13:58:52.842Z,7.42
2018-12-21T14:01:25.822Z,7.41
2018-12-21T14:03:58.783Z,7.45
2018-12-21T14:06:31.845Z,7.46
2018-12-21T14:09:06.416Z,7.54
2018-12-21T14:11:39.359Z,7.57
2018-12-21T14:14:12.308Z,7.55
2018-12-21T14:16:45.287Z,7.51
2018-12-21T14:19:18.224Z,7.53
2018-12-21T14:21:51.223Z,7.55
2018-12-21T14:24:24.236Z,7.55
2018-12-21T14:26:57.130Z,7.54
2018-12-21T14:29:30.851Z,7.58
2018-12-21T14:32:03.717Z,7.60
2018-12-21T14:34:40.809Z,7.65
2018-12-21T14:37:14.244Z,7.74
2018-12-21T14:39:47.163Z,7.78
2018-12-21T14:42:20.096Z,7.83
2018-12-21T14:44:53.010Z,7.87
2018-12-21T14:47:26.340Z,7.92
2018-12-21T14:49:59.278Z,7.95
2018-12-21T14:52:32.251Z,8.00
2018-12-21T14:55:06.378Z,8.04
2018-12-21T14:57:39.313Z,8.09
2018-12-21T15:00:12.682Z,8.09
2018-12-21T15:02:45.561Z,8.15
2018-12-21T15:05:19.010Z,8.17
2018-12-21T15:07:52.087Z,8.20
2018-12-21T15:10:25.288Z,8.25
2018-12-21T15:12:58.320Z,8.33
2018-12-21T15:15:31.259Z,8.42
2018-12-21T15:18:04.170Z,8.45
2018-12-21T15:20:37.471Z,8.51
2018-12-21T15:23:10.327Z,8.57
2018-12-21T15:25:46.183Z,8.64
2018-12-21T15:28:18.124Z,8.68
2018-12-21T15:30:51.114Z,8.73
2018-12-21T15:33:24.053Z,8.82
2018-12-21T15:35:56.973Z,8.88
2018-12-21T15:38:29.909Z,8.89
2018-12-21T15:41:02.827Z,8.96
2018-12-21T15:43:35.870Z,8.99
2018-12-21T15:46:08.764Z,8.99
2018-12-21T15:48:42.759Z,8.99
2018-12-21T15:51:16.753Z,9.10
2018-12-21T15:53:51.400Z,9.11
2018-12-21T15:56:26.620Z,9.15
2018-12-21T15:59:02.461Z,9.15
2018-12-21T16:01:37.087Z,9.17
2018-12-21T16:04:10.300Z,9.19
2018-12-21T16:06:43.502Z,9.22
2018-12-21T16:09:16.412Z,9.21
2018-12-21T16:11:49.315Z,9.17
2018-12-21T16:14:22.340Z,9.23
2018-12-21T16:16:55.324Z,9.24
2018-12-21T16:19:28.252Z,9.25
2018-12-21T16:22:01.397Z,9.29
2018-12-21T16:24:34.419Z,9.35
2018-12-21T16:27:10.627Z,9.36
2018-12-21T16:29:43.633Z,9.35
2018-12-21T16:32:16.694Z,9.35
2018-12-21T16:34:49.669Z,9.38
2018-12-21T16:37:22.939Z,9.46
2018-12-21T16:39:56.201Z,9.52
2018-12-21T16:42:29.113Z,9.49
2018-12-21T16:45:02.130Z,9.45
2018-12-21T16:47:35.497Z,9.48
2018-12-21T16:50:13.052Z,9.53
2018-12-21T16:52:46.003Z,9.54
2018-12-21T16:55:19.228Z,9.56
2018-12-21T16:57:52.142Z,9.58
2018-12-21T17:00:25.250Z,9.61
2018-12-21T17:02:58.334Z,9.71
2018-12-21T17:05:31.279Z,9.72
2018-12-21T17:08:04.308Z,9.74
2018-12-21T17:10:38.643Z,9.88
2018-12-21T17:13:11.680Z,9.89
2018-12-21T17:15:44.574Z,9.93
2018-12-21T17:18:17.708Z,9.89
2018-12-21T17:20:50.742Z,9.84
2018-12-21T17:23:23.892Z,9.89
2018-12-21T17:25:58.191Z,9.90
2018-12-21T17:28:30.174Z,9.92
2018-12-21T17:31:03.111Z,9.93
2018-12-21T17:33:36.208Z,9.89
2018-12-21T17:36:09.083Z,9.92
2018-12-21T17:38:42.137Z,9.97
2018-12-21T17:41:16.694Z,9.97
2018-12-21T17:43:49.863Z,9.92
2018-12-21T17:46:22.772Z,9.96
2018-12-21T17:48:55.803Z,10.05
2018-12-21T17:51:28.882Z,10.09
2018-12-21T17:54:01.806Z,10.17
2018-12-21T17:56:34.838Z,10.23
2018-12-21T17:59:07.841Z,10.26
2018-12-21T18:01:40.879Z,10.25
2018-12-21T18:04:15.869Z,10.26
2018-12-21T18:06:48.928Z,10.26
2018-12-21T18:09:22.139Z,10.28
2018-12-21T18:11:57.297Z,10.28
2018-12-21T18:14:30.400Z,10.25
2018-12-21T18:17:03.450Z,10.22
2018-12-21T18:19:36.505Z,10.24
2018-12-21T18:22:09.547Z,10.24
2018-12-21T18:24:42.646Z,10.23
2018-12-21T18:27:15.744Z,10.28
2018-12-21T18:29:48.700Z,10.29
2018-12-21T18:32:22.042Z,10.29
2018-12-21T18:34:55.028Z,10.33
2018-12-21T18:37:28.045Z,10.39
2018-12-21T18:40:02.207Z,10.39
2018-12-21T18:42:35.262Z,10.41
2018-12-21T18:45:08.944Z,10.42
2018-12-21T18:47:41.838Z,10.47
2018-12-21T18:50:14.867Z,10.61
2018-12-21T18:52:47.837Z,10.58
2018-12-21T18:55:20.774Z,10.56
2018-12-21T18:57:53.871Z,10.56
2018-12-21T19:00:27.074Z,10.58
2018-12-21T19:02:59.955Z,10.61
2018-12-21T19:05:33.082Z,10.63
2018-12-21T19:08:06.182Z,10.67
2018-12-21T19:10:42.594Z,10.69
2018-12-21T19:13:15.459Z,10.65
2018-12-21T19:15:49.857Z,10.63
2018-12-21T19:18:23.019Z,10.65
2018-12-21T19:20:55.988Z,10.70
2018-12-21T19:23:29.389Z,10.71
2018-12-21T19:26:02.474Z,10.71
2018-12-21T19:28:35.475Z,10.69
2018-12-21T19:31:09.346Z,10.70
2018-12-21T19:33:42.970Z,10.80
2018-12-21T19:36:16.133Z,10.82
2018-12-21T19:38:52.653Z,10.93
2018-12-21T19:41:25.584Z,10.88
2018-12-21T19:43:58.574Z,10.85
2018-12-21T19:46:31.554Z,10.89
2018-12-21T19:49:04.727Z,11.00
2018-12-21T19:51:37.738Z,10.97
2018-12-21T19:54:11.094Z,11.02
2018-12-21T19:56:46.823Z,11.05
2018-12-21T19:59:19.967Z,11.02
2018-12-21T20:01:52.979Z,10.99
2018-12-21T20:04:25.985Z,10.94
2018-12-21T20:06:59.209Z,10.92
2018-12-21T20:09:33.389Z,10.89
2018-12-21T20:12:06.367Z,10.93
2018-12-21T20:14:39.308Z,10.92
2018-12-21T20:17:12.279Z,10.92
2018-12-21T20:19:45.243Z,10.92
2018-12-21T20:22:18.165Z,10.89
2018-12-21T20:24:51.176Z,10.84
2018-12-21T20:27:24.195Z,10.83
2018-12-21T20:29:57.081Z,10.92
2018-12-21T20:32:29.999Z,10.89
2018-12-21T20:35:03.211Z,10.85
2018-12-21T20:37:36.210Z,10.87
2018-12-21T20:40:11.490Z,10.87
2018-12-21T20:42:44.484Z,10.88
2018-12-21T20:45:17.444Z,10.87
2018-12-21T20:47:52.072Z,10.81
2018-12-21T20:50:24.963Z,10.77
2018-12-21T20:52:57.902Z,10.82
2018-12-21T20:55:30.996Z,10.80
2018-12-21T20:58:04.650Z,10.77
2018-12-21T21:00:37.574Z,10.75
2018-12-21T21:03:10.617Z,10.71
2018-12-21T21:05:44.105Z,10.68
2018-12-21T21:08:17.242Z,10.63
2018-12-21T21:10:50.319Z,10.62
2018-12-21T21:13:23.243Z,10.60
2018-12-21T21:15:56.147Z,10.57
2018-12-21T21:18:31.453Z,10.53
2018-12-21T21:21:04.400Z,10.50
2018-12-21T21:23:37.330Z,10.55
2018-12-21T21:26:10.368Z,10.51
2018-12-21T21:28:44.001Z,10.54
2018-12-21T21:31:16.979Z,10.52
2018-12-21T21:33:49.914Z,10.50
2018-12-21T21:36:22.833Z,10.49
2018-12-21T21:38:55.747Z,10.45
2018-12-21T21:41:28.699Z,10.39
2018-12-21T21:44:01.656Z,10.31
2018-12-21T21:46:34.697Z,10.21
2018-12-21T21:49:07.722Z,10.09
2018-12-21T21:51:40.746Z,10.10
2018-12-21T21:54:13.696Z,10.12
2018-12-21T21:56:46.622Z,10.06
2018-12-21T21:59:19.583Z,10.01
2018-12-21T22:01:52.579Z,9.92
2018-12-21T22:04:25.541Z,9.81
2018-12-21T22:06:58.410Z,9.80
2018-12-21T22:09:31.447Z,9.85
2018-12-21T22:12:04.368Z,9.88
2018-12-21T22:14:36.772Z,9.78
2018-12-21T22:17:09.707Z,9.65
2018-12-21T22:19:42.623Z,9.64
2018-12-21T22:22:15.495Z,9.67
2018-12-21T22:24:47.271Z,9.51
2018-12-21T22:27:20.167Z,9.58
2018-12-21T22:29:53.064Z,9.68
2018-12-21T22:32:25.964Z,9.85
2018-12-21T22:34:58.884Z,10.19
2018-12-21T22:37:31.788Z,10.06
2018-12-21T22:40:07.610Z,9.86
2018-12-21T22:42:40.488Z,9.74
2018-12-21T22:45:13.399Z,9.56
2018-12-21T22:47:46.329Z,9.47
2018-12-21T22:50:19.333Z,9.66
2018-12-21T22:52:48.455Z,9.67
2018-12-21T22:55:21.387Z,9.56
2018-12-21T22:57:56.628Z,9.55
2018-12-21T23:00:31.364Z,9.63
2018-12-21T23:03:04.289Z,9.83
2018-12-21T23:05:37.195Z,9.92
2018-12-21T23:08:10.075Z,9.97
2018-12-21T23:10:43.976Z,10.10
2018-12-21T23:13:17.005Z,10.14
2018-12-21T23:15:49.936Z,10.47
2018-12-21T23:18:22.802Z,10.52
2018-12-21T23:20:53.933Z,10.57
2018-12-21T23:23:26.926Z,10.69
2018-12-21T23:25:59.861Z,10.76
2018-12-21T23:28:32.838Z,10.73
2018-12-21T23:31:05.760Z,10.74
2018-12-21T23:33:38.669Z,10.75
2018-12-21T23:36:11.575Z,10.71
2018-12-21T23:38:44.563Z,10.71
2018-12-21T23:41:18.834Z,10.71
2018-12-21T23:43:51.693Z,10.68
2018-12-21T23:46:24.794Z,10.67
2018-12-21T23:48:57.710Z,10.66
2018-12-21T23:51:31.045Z,10.65
2018-12-21T23:54:04.015Z,10.64
2018-12-21T23:56:36.899Z,10.63
2018-12-21T23:59:09.791Z,10.66
